Hauptseite
METAR-TAF:

METAR-TAF

Flughäfen :

Flughafen Castellón

Castellón de la Plana, Spanien

Breite: 40-12-35N, Länge: 0-04-11E, Höhe: 360 m

Beobachtung

Neuester Wetterbericht von vor 44 Minuten, um 01:00 UTC
Wind 4 kt aus Nord, variierte zwischen Nord/Nordwest und Nord/Nordost
Temperatur 9°C
Luftfeuchtigkeit 100%
Luftdruck 1025 hPa
Sichtweite: 0100 m
Nebel

METAR: LECH 170100Z AUTO 36004KT 330V030 0100 R06/0100N FG VV001 09/09 Q1025

Zeit: 02:44 (01:44 UTC)


TAF: fehlend

Wetterbeobachtungen und Prognosen von mehr als 4000 Flughäfen (METAR und TAF Bericht).

Die verfügbaren Stationen werden durch gelbe und rote Markierungen auf der Karte dargestellt.

Führen Sie die Maus auf sie, um den Namen der Station zu sehen.

Darauf klicken, um die Beobachtung von Wetterbeobachtungen und Prognosen zu sehen.

Um die Karte zu ändern : klicken Sie auf den grünen Tasten mit einem schwarzen Kreuz Zum Vergrößern, auf den grünen Button mit einem Gedankenstrich zu verkleinern, oder auf die grünen Pfeile für benachbarte Karten.


METAR-TAF: